Time;durP1;ratioP1;P1;durP2;ratioP2;P2;SDS_P1;SDS_P2;PMS_P1;PMS_P2;Temp;Humidity;BMP_temperature;BMP_pressure;BME280_temperature;BME280_humidity;BME280_pressure;Samples;Min_cycle;Max_cycle;Signal;HPM_P1;HPM_P2
2022/08/17 00:03:11;;;;;;;4.03;3.33;;;30.20;52.10;;;;;;10443058;28;20080;-34
2022/08/17 00:08:17;;;;;;;4.05;2.97;;;30.10;52.00;;;;;;10444985;28;20049;-35
2022/08/17 00:13:24;;;;;;;3.85;3.13;;;30.10;52.10;;;;;;10443969;28;20041;-35
2022/08/17 00:18:26;;;;;;;3.95;3.03;;;30.10;52.10;;;;;;10440527;28;20049;-35
2022/08/17 00:23:29;;;;;;;3.72;3.05;;;30.10;52.20;;;;;;10435821;28;20088;-35
2022/08/17 00:28:31;;;;;;;3.70;3.00;;;30.10;52.10;;;;;;10445051;28;20132;-36
2022/08/17 00:33:34;;;;;;;4.03;3.28;;;30.00;52.10;;;;;;10444086;28;20136;-35
2022/08/17 00:38:37;;;;;;;4.00;2.90;;;30.00;52.10;;;;;;10439845;28;20451;-34
2022/08/17 00:43:42;;;;;;;3.08;2.80;;;30.00;52.20;;;;;;10446437;28;20053;-35
2022/08/17 00:48:45;;;;;;;4.55;2.92;;;30.00;52.20;;;;;;10420617;28;20136;-34
2022/08/17 00:53:54;;;;;;;3.60;3.10;;;30.00;52.30;;;;;;10431586;28;20325;-35
2022/08/17 00:58:56;;;;;;;8.30;5.93;;;29.90;52.30;;;;;;10445618;28;20045;-34
2022/08/17 01:03:58;;;;;;;10.70;9.57;;;29.90;52.30;;;;;;10426200;28;20144;-36
2022/08/17 01:09:03;;;;;;;17.17;10.50;;;28.60;55.20;;;;;;10442796;28;20175;-34
2022/08/17 01:14:05;;;;;;;23.27;11.85;;;27.60;57.20;;;;;;10434033;28;20139;-34
2022/08/17 01:19:14;;;;;;;7.28;5.00;;;27.50;57.40;;;;;;10436404;28;20098;-33
2022/08/17 01:24:18;;;;;;;21.30;9.45;;;28.10;56.10;;;;;;10434153;28;20052;-34
2022/08/17 01:29:23;;;;;;;16.38;8.90;;;26.60;59.90;;;;;;10448833;28;20065;-35
2022/08/17 01:34:25;;;;;;;18.63;7.03;;;26.80;59.40;;;;;;10441752;28;20099;-34
2022/08/17 01:39:31;;;;;;;9.57;5.50;;;26.50;60.30;;;;;;10440733;28;20144;-34
2022/08/17 01:44:33;;;;;;;12.55;5.10;;;27.50;58.30;;;;;;10435191;28;20080;-34
2022/08/17 01:49:35;;;;;;;14.38;6.47;;;28.60;55.10;;;;;;10440776;28;20071;-34
2022/08/17 01:54:46;;;;;;;6.10;4.10;;;28.60;54.90;;;;;;10447276;28;20128;-33
2022/08/17 01:59:48;;;;;;;9.13;4.60;;;29.10;54.20;;;;;;10442527;28;20069;-34
2022/08/17 02:04:49;;;;;;;7.95;4.07;;;29.30;53.70;;;;;;10454472;28;20124;-34
2022/08/17 02:09:53;;;;;;;7.03;4.05;;;29.30;53.40;;;;;;10442171;28;20088;-35
2022/08/17 02:14:55;;;;;;;10.27;3.85;;;29.30;53.40;;;;;;10429905;28;20100;-34
2022/08/17 02:19:57;;;;;;;8.57;3.90;;;29.30;53.50;;;;;;10436609;28;20144;-35
2022/08/17 02:25:02;;;;;;;10.75;4.57;;;29.30;53.40;;;;;;10443294;28;20048;-35
2022/08/17 02:30:06;;;;;;;9.10;3.63;;;29.30;53.30;;;;;;10444262;28;20049;-34
2022/08/17 02:35:09;;;;;;;16.25;4.28;;;29.40;53.50;;;;;;10441166;28;20053;-34
2022/08/17 02:40:12;;;;;;;8.15;3.60;;;29.40;53.80;;;;;;10446604;28;20107;-34
2022/08/17 02:45:19;;;;;;;10.07;4.20;;;29.40;54.00;;;;;;10447028;28;20143;-34
2022/08/17 02:50:24;;;;;;;9.45;4.43;;;29.30;54.20;;;;;;10448831;28;20053;-35
2022/08/17 02:55:29;;;;;;;10.15;3.60;;;29.30;54.20;;;;;;10450145;28;20110;-34
2022/08/17 03:00:34;;;;;;;7.85;3.42;;;29.30;54.20;;;;;;10443639;28;20050;-34
2022/08/17 03:05:37;;;;;;;8.20;3.20;;;29.30;54.20;;;;;;10437846;28;20147;-34
2022/08/17 03:10:40;;;;;;;12.25;3.78;;;29.30;54.20;;;;;;10444882;28;20075;-34
2022/08/17 03:15:44;;;;;;;6.53;3.10;;;29.30;54.20;;;;;;10439937;28;20106;-34
2022/08/17 03:20:46;;;;;;;7.63;3.47;;;29.30;54.30;;;;;;10441131;28;20139;-34
2022/08/17 03:25:50;;;;;;;8.30;3.58;;;29.30;54.30;;;;;;10448734;28;20144;-35
2022/08/17 03:30:52;;;;;;;7.82;3.15;;;29.20;54.40;;;;;;10441972;28;20498;-34
2022/08/17 03:35:54;;;;;;;7.93;3.58;;;29.20;54.40;;;;;;10442689;28;20099;-35
2022/08/17 03:40:57;;;;;;;9.30;3.13;;;29.20;54.60;;;;;;10440156;28;20140;-35
2022/08/17 03:56:43;;;;;;;5.50;3.33;;;29.20;54.80;;;;;;10443785;28;20049;-33
2022/08/17 04:01:45;;;;;;;7.47;3.58;;;29.10;54.60;;;;;;10441716;28;20072;-36
2022/08/17 04:06:47;;;;;;;5.25;3.00;;;29.10;54.60;;;;;;10436930;28;20045;-35
2022/08/17 04:11:51;;;;;;;6.70;3.05;;;29.10;54.60;;;;;;10440478;28;20080;-35
2022/08/17 04:16:54;;;;;;;7.35;3.15;;;29.10;54.50;;;;;;10443358;28;20040;-34
2022/08/17 04:21:56;;;;;;;6.20;3.38;;;29.10;54.60;;;;;;10443925;28;20049;-33
2022/08/17 04:27:00;;;;;;;6.82;3.28;;;29.00;54.60;;;;;;10429017;28;20052;-34
2022/08/17 04:32:02;;;;;;;7.93;3.58;;;29.00;54.60;;;;;;10422416;28;20060;-35
2022/08/17 04:37:04;;;;;;;5.80;3.25;;;28.80;55.20;;;;;;10428907;28;20480;-34
2022/08/17 04:42:15;;;;;;;6.85;3.00;;;28.90;55.00;;;;;;10426876;28;20139;-34
2022/08/17 04:47:17;;;;;;;6.82;3.13;;;29.00;55.00;;;;;;10425759;28;20127;-34
2022/08/17 04:52:19;;;;;;;8.40;3.45;;;28.90;55.10;;;;;;10427826;28;20091;-34
2022/08/17 04:57:22;;;;;;;6.38;2.80;;;28.90;55.00;;;;;;10432269;28;20116;-34
2022/08/17 05:02:24;;;;;;;5.93;2.90;;;28.80;55.10;;;;;;10437256;28;20045;-35
2022/08/17 05:07:26;;;;;;;5.97;2.97;;;28.80;54.90;;;;;;10441658;28;20079;-35
2022/08/17 05:12:29;;;;;;;4.75;2.83;;;28.80;55.10;;;;;;10435848;28;20087;-33
2022/08/17 05:17:31;;;;;;;4.43;2.50;;;28.70;55.90;;;;;;10441107;28;20561;-34
2022/08/17 05:22:33;;;;;;;4.47;2.70;;;28.70;55.30;;;;;;10427535;28;20528;-34
2022/08/17 05:27:36;;;;;;;4.60;2.70;;;28.80;55.40;;;;;;10442979;28;20140;-34
2022/08/17 05:32:38;;;;;;;6.07;2.75;;;28.80;55.50;;;;;;10439624;28;20509;-35
2022/08/17 05:37:40;;;;;;;5.95;2.92;;;28.80;55.50;;;;;;10412698;28;20403;-35
2022/08/17 05:42:43;;;;;;;13.18;3.38;;;28.80;55.50;;;;;;10418805;28;20046;-35
2022/08/17 05:47:46;;;;;;;10.73;3.38;;;28.80;55.50;;;;;;10419739;28;20041;-35
2022/08/17 05:52:55;;;;;;;9.05;3.00;;;28.80;56.10;;;;;;10415302;28;20105;-35
2022/08/17 05:58:11;;;;;;;3.72;2.72;;;28.80;55.70;;;;;;10431022;28;20410;-35
2022/08/17 06:03:25;;;;;;;7.43;3.28;;;28.80;55.70;;;;;;10425158;28;20085;-32
2022/08/17 06:08:34;;;;;;;5.18;3.03;;;28.70;55.60;;;;;;10438962;28;20403;-35
2022/08/17 06:14:05;;;;;;;7.60;3.10;;;28.70;55.50;;;;;;10449932;28;20054;-34
2022/08/17 06:19:15;;;;;;;4.43;3.10;;;28.60;55.50;;;;;;10446960;28;20815;-36
2022/08/17 06:24:27;;;;;;;7.10;3.97;;;28.70;55.30;;;;;;10463715;28;20594;-35
2022/08/17 06:29:38;;;;;;;6.15;2.90;;;28.70;55.10;;;;;;10455887;28;20056;-35
2022/08/17 06:34:41;;;;;;;;;;;28.60;54.90;;;;;;10448411;28;20490;-34
2022/08/17 06:39:52;;;;;;;6.07;3.00;;;28.60;54.70;;;;;;10446764;28;19999;-35
2022/08/17 06:45:01;;;;;;;6.95;2.90;;;28.60;54.70;;;;;;10423193;28;20115;-35
2022/08/17 06:50:13;;;;;;;5.93;2.97;;;28.60;54.50;;;;;;10454360;28;20477;-34
2022/08/17 06:55:21;;;;;;;4.78;2.97;;;28.60;54.50;;;;;;10448703;28;20451;-34
2022/08/17 07:00:31;;;;;;;5.88;3.42;;;28.60;54.60;;;;;;10450855;28;20045;-34
2022/08/17 07:05:37;;;;;;;4.95;3.45;;;28.50;54.80;;;;;;10449170;28;20111;-33
2022/08/17 07:10:44;;;;;;;4.85;3.30;;;28.40;54.70;;;;;;10445460;28;20105;-34
2022/08/17 07:15:50;;;;;;;6.53;4.00;;;28.40;54.70;;;;;;10434705;28;20103;-34
2022/08/17 07:20:59;;;;;;;6.18;2.95;;;28.30;54.80;;;;;;10437725;28;20478;-35
2022/08/17 07:26:04;;;;;;;5.50;3.20;;;28.40;54.50;;;;;;10438148;28;20134;-34
2022/08/17 07:31:08;;;;;;;4.40;2.70;;;28.30;54.60;;;;;;10447113;28;20233;-34
2022/08/17 07:36:25;;;;;;;5.65;3.00;;;28.20;54.70;;;;;;10446830;28;20119;-34
2022/08/17 07:41:28;;;;;;;4.93;2.72;;;28.30;54.60;;;;;;10445117;28;20053;-34
2022/08/17 07:52:09;;;;;;;5.78;3.10;;;28.20;54.50;;;;;;10436388;28;20053;-35
2022/08/17 07:57:34;;;;;;;3.45;2.33;;;28.30;54.20;;;;;;10456447;28;20049;-35
2022/08/17 08:02:40;;;;;;;3.53;2.40;;;28.30;54.20;;;;;;10446029;28;20049;-35
2022/08/17 08:07:53;;;;;;;5.68;3.20;;;28.20;54.20;;;;;;10448674;28;20049;-35
2022/08/17 08:13:04;;;;;;;6.68;3.70;;;28.30;54.20;;;;;;10426553;28;20437;-35
2022/08/17 08:18:22;;;;;;;11.18;4.68;;;28.30;54.30;;;;;;10439548;28;20456;-35
2022/08/17 08:23:35;;;;;;;5.15;3.83;;;27.90;55.50;;;;;;10438397;28;20516;-36
2022/08/17 08:28:45;;;;;;;6.80;4.00;;;27.20;59.30;;;;;;10439918;28;20057;-34
2022/08/17 08:33:59;;;;;;;7.65;3.72;;;25.80;61.50;;;;;;10449726;28;20053;-34
2022/08/17 08:39:08;;;;;;;8.93;3.50;;;27.60;56.90;;;;;;10433177;28;20733;-36
2022/08/17 08:44:25;;;;;;;7.88;3.83;;;27.50;56.80;;;;;;10434597;28;20057;-34
2022/08/17 08:49:52;;;;;;;9.70;4.75;;;26.20;59.70;;;;;;10433661;28;20072;-35
2022/08/17 08:55:02;;;;;;;11.50;4.85;;;26.70;58.90;;;;;;10445711;28;20454;-35
2022/08/17 09:00:13;;;;;;;4.78;3.40;;;26.00;61.60;;;;;;10444310;28;20060;-35
2022/08/17 09:05:29;;;;;;;10.82;3.70;;;27.30;57.70;;;;;;10445054;28;20052;-34
2022/08/17 09:10:38;;;;;;;10.27;3.70;;;27.50;57.40;;;;;;10435954;28;20144;-35
2022/08/17 09:15:44;;;;;;;9.82;4.00;;;27.80;56.50;;;;;;10439583;28;20457;-35
2022/08/17 09:20:54;;;;;;;8.60;3.80;;;27.70;56.80;;;;;;10435529;28;20044;-34
2022/08/17 09:26:00;;;;;;;6.57;3.97;;;27.90;56.20;;;;;;10437445;28;20143;-32
2022/08/17 09:31:07;;;;;;;4.72;3.67;;;28.10;56.00;;;;;;10425075;28;20684;-34
2022/08/17 09:36:15;;;;;;;8.68;3.38;;;28.00;55.80;;;;;;10418842;28;20080;-33
2022/08/17 09:41:23;;;;;;;4.97;3.13;;;28.00;56.00;;;;;;10426506;28;20049;-33
2022/08/17 09:46:31;;;;;;;5.45;3.17;;;28.00;56.10;;;;;;10425418;28;20052;-35
2022/08/17 09:51:39;;;;;;;4.82;3.05;;;28.10;56.00;;;;;;10437265;28;20072;-35
2022/08/17 09:56:52;;;;;;;5.38;3.40;;;28.10;55.90;;;;;;10439033;28;20398;-35
2022/08/17 10:02:01;;;;;;;4.68;3.25;;;28.10;55.90;;;;;;10433892;28;20040;-36
2022/08/17 10:07:13;;;;;;;4.10;2.67;;;28.10;56.00;;;;;;10432294;28;20562;-36
2022/08/17 10:12:25;;;;;;;5.43;3.15;;;28.10;56.00;;;;;;10444612;28;20073;-34
2022/08/17 10:17:35;;;;;;;4.45;3.05;;;28.20;56.20;;;;;;10440339;28;20038;-35
2022/08/17 10:28:08;;;;;;;4.90;3.35;;;28.20;56.20;;;;;;10438898;28;20068;-35
2022/08/17 10:33:16;;;;;;;3.13;2.75;;;28.20;56.30;;;;;;10436072;28;20063;-33
2022/08/17 10:38:32;;;;;;;4.38;2.92;;;28.20;56.30;;;;;;10422703;28;20099;-34
2022/08/17 10:43:43;;;;;;;2.33;2.13;;;28.20;56.30;;;;;;10440595;28;20048;-36
2022/08/17 10:48:46;;;;;;;3.10;2.40;;;28.20;56.40;;;;;;10431795;28;20145;-32
2022/08/17 10:54:00;;;;;;;3.35;2.60;;;28.20;56.60;;;;;;10423695;28;20057;-34
2022/08/17 10:59:02;;;;;;;3.60;2.72;;;28.20;56.50;;;;;;10449642;28;20048;-35
2022/08/17 11:04:21;;;;;;;3.53;2.50;;;28.20;56.50;;;;;;10437419;28;20118;-36
2022/08/17 11:09:34;;;;;;;3.42;2.50;;;28.20;56.50;;;;;;10436642;28;20077;-39
2022/08/17 11:14:52;;;;;;;2.78;2.38;;;28.30;56.60;;;;;;10445322;28;20140;-35
2022/08/17 11:20:19;;;;;;;3.60;2.00;;;28.30;56.70;;;;;;10441502;28;20080;-36
2022/08/17 11:25:33;;;;;;;3.67;2.20;;;28.30;56.70;;;;;;10434337;28;20135;-33
2022/08/17 11:30:47;;;;;;;2.28;1.92;;;28.30;56.60;;;;;;10464786;28;20045;-37
2022/08/17 11:35:55;;;;;;;2.58;2.17;;;28.30;56.70;;;;;;10452564;28;20048;-37
2022/08/17 11:41:13;;;;;;;3.22;2.08;;;28.30;56.70;;;;;;10432345;28;20146;-37
2022/08/17 11:51:31;;;;;;;2.72;2.25;;;28.30;56.60;;;;;;10442999;28;20083;-39
2022/08/17 11:52:09;;;;;;;2.58;2.10;;;28.40;56.70;;;;;;10450213;28;20064;-36
2022/08/17 11:58:00;;;;;;;2.65;2.13;;;28.30;56.60;;;;;;10455860;28;20052;-36
2022/08/17 12:03:25;;;;;;;3.90;2.08;;;28.40;56.70;;;;;;10467646;28;20094;-33
2022/08/17 12:08:31;;;;;;;3.50;2.83;;;28.30;56.60;;;;;;10458010;28;20401;-35
2022/08/17 12:13:43;;;;;;;2.58;2.25;;;28.30;56.70;;;;;;10458606;28;20071;-36
2022/08/17 12:18:50;;;;;;;2.33;2.13;;;28.30;56.70;;;;;;10457209;28;20069;-36
2022/08/17 12:23:58;;;;;;;2.60;2.40;;;28.30;56.70;;;;;;10446586;28;20152;-34
2022/08/17 12:29:04;;;;;;;3.17;2.72;;;28.30;56.60;;;;;;10454904;28;20049;-34
2022/08/17 12:34:12;;;;;;;2.65;2.33;;;28.30;56.70;;;;;;10454027;28;20102;-35
2022/08/17 12:39:19;;;;;;;3.00;2.78;;;28.30;56.70;;;;;;10440883;28;20127;-35
2022/08/17 12:44:24;;;;;;;3.88;2.45;;;28.30;56.90;;;;;;10448885;28;20099;-43
2022/08/17 12:49:30;;;;;;;3.60;2.53;;;28.30;56.60;;;;;;10456649;28;20121;-34
2022/08/17 12:54:41;;;;;;;2.97;2.50;;;28.30;56.80;;;;;;10449320;28;20049;-34
2022/08/17 12:59:48;;;;;;;3.50;2.83;;;28.30;57.00;;;;;;10455136;28;20053;-35
2022/08/17 13:04:50;;;;;;;3.67;2.78;;;28.30;56.90;;;;;;10449102;28;20061;-35
2022/08/17 13:09:52;;;;;;;3.50;2.88;;;28.30;56.90;;;;;;10450758;28;20037;-36
2022/08/17 13:14:56;;;;;;;3.08;2.88;;;28.40;57.10;;;;;;10464591;28;20132;-36
2022/08/17 13:19:59;;;;;;;4.28;3.25;;;28.30;57.00;;;;;;10467259;28;20040;-37
2022/08/17 13:25:06;;;;;;;3.35;2.97;;;28.30;57.20;;;;;;10450918;28;20464;-36
2022/08/17 13:30:13;;;;;;;3.83;3.00;;;28.30;56.90;;;;;;10458083;28;20091;-37
2022/08/17 13:35:39;;;;;;;3.20;2.85;;;28.20;56.80;;;;;;10470406;28;20044;-32
2022/08/17 13:40:48;;;;;;;4.78;3.05;;;28.30;56.40;;;;;;10459660;28;20057;-33
2022/08/17 13:45:53;;;;;;;8.75;4.88;;;28.00;56.70;;;;;;10462627;28;20185;-36
2022/08/17 13:51:14;;;;;;;11.02;5.70;;;28.20;56.60;;;;;;10457799;28;20094;-35
2022/08/17 13:56:30;;;;;;;9.73;5.78;;;28.10;56.70;;;;;;10464901;28;20049;-34
2022/08/17 14:01:35;;;;;;;12.38;5.78;;;28.10;56.80;;;;;;10454666;28;20106;-33
2022/08/17 14:06:50;;;;;;;9.90;5.85;;;28.20;56.30;;;;;;10430599;28;20138;-34
2022/08/17 14:11:53;;;;;;;11.20;5.95;;;28.10;56.60;;;;;;10450660;28;20397;-34
2022/08/17 14:16:57;;;;;;;11.77;7.28;;;28.20;56.20;;;;;;10452950;28;20139;-34
2022/08/17 14:21:59;;;;;;;11.57;7.82;;;28.20;56.20;;;;;;10456862;28;20053;-35
2022/08/17 14:27:03;;;;;;;10.40;6.07;;;28.20;56.20;;;;;;10459521;28;20053;-35
2022/08/17 14:32:15;;;;;;;10.77;6.68;;;28.30;56.40;;;;;;10456543;28;20051;-33
2022/08/17 14:37:18;;;;;;;10.38;6.22;;;28.30;56.30;;;;;;10459951;28;20047;-36
2022/08/17 14:42:23;;;;;;;9.80;5.13;;;28.30;56.10;;;;;;10457179;28;20053;-35
2022/08/17 14:47:26;;;;;;;14.35;5.90;;;28.20;56.00;;;;;;10454324;28;20059;-34
2022/08/17 14:52:29;;;;;;;8.07;5.40;;;28.10;56.30;;;;;;10461374;28;20052;-34
2022/08/17 14:57:30;;;;;;;7.43;5.25;;;28.30;56.10;;;;;;10463214;28;20185;-34
2022/08/17 15:02:44;;;;;;;6.35;4.82;;;28.10;56.60;;;;;;10451599;28;20468;-35
2022/08/17 15:07:46;;;;;;;5.00;3.88;;;28.30;56.40;;;;;;10456069;28;20057;-33
2022/08/17 15:12:48;;;;;;;8.52;4.40;;;28.30;56.10;;;;;;10467768;28;20124;-34
2022/08/17 15:17:51;;;;;;;5.57;4.15;;;28.30;55.80;;;;;;10467704;28;20076;-36
2022/08/17 15:22:55;;;;;;;6.93;3.97;;;28.30;55.90;;;;;;10460041;28;20387;-34
2022/08/17 15:27:58;;;;;;;4.40;3.58;;;28.30;55.80;;;;;;10450598;28;20040;-34
2022/08/17 15:33:02;;;;;;;4.47;3.60;;;28.30;55.70;;;;;;10451334;28;20123;-33
2022/08/17 15:38:06;;;;;;;5.03;3.15;;;28.30;55.90;;;;;;10450615;28;20132;-34
2022/08/17 15:43:10;;;;;;;5.95;3.80;;;28.50;55.40;;;;;;10451348;28;20086;-33
2022/08/17 15:48:14;;;;;;;5.47;3.42;;;28.50;55.00;;;;;;10452939;28;20051;-34
2022/08/17 15:53:15;;;;;;;5.45;4.00;;;28.50;54.80;;;;;;10448820;28;20383;-35
2022/08/17 15:58:17;;;;;;;6.43;4.38;;;28.50;54.90;;;;;;10446378;28;20144;-34
2022/08/17 16:03:20;;;;;;;5.22;4.22;;;28.50;54.90;;;;;;10446431;28;20065;-34
2022/08/17 16:08:22;;;;;;;5.43;4.45;;;28.50;54.80;;;;;;10447912;28;20080;-37
2022/08/17 16:13:24;;;;;;;4.57;4.07;;;28.40;54.70;;;;;;10437789;28;20058;-34
2022/08/17 16:18:30;;;;;;;5.78;4.63;;;28.40;54.60;;;;;;10407767;28;20477;-34
2022/08/17 16:23:32;;;;;;;6.22;4.60;;;28.40;54.60;;;;;;10394659;28;20054;-35
2022/08/17 16:28:34;;;;;;;6.60;5.45;;;28.40;54.80;;;;;;10389791;28;20537;-34
2022/08/17 16:33:38;;;;;;;7.47;5.53;;;28.40;54.50;;;;;;10399256;28;20132;-35
2022/08/17 16:38:40;;;;;;;11.57;5.60;;;28.40;54.50;;;;;;10400991;28;20072;-34
2022/08/17 16:43:44;;;;;;;9.98;6.28;;;28.40;54.50;;;;;;10397072;28;20533;-35
2022/08/17 16:48:47;;;;;;;7.05;5.53;;;28.40;54.50;;;;;;10402284;28;20065;-34
2022/08/17 16:53:50;;;;;;;8.88;5.57;;;28.40;54.50;;;;;;10393179;28;20100;-35
2022/08/17 16:58:52;;;;;;;8.43;5.20;;;28.40;54.40;;;;;;10394610;28;20069;-36
2022/08/17 17:04:00;;;;;;;9.45;5.50;;;28.50;54.40;;;;;;10393822;28;20478;-37
2022/08/17 17:09:06;;;;;;;8.60;5.15;;;28.40;54.60;;;;;;10395995;28;20162;-36
2022/08/17 17:14:11;;;;;;;9.52;6.05;;;28.50;54.50;;;;;;10399385;28;20473;-35
2022/08/17 17:19:22;;;;;;;12.88;6.05;;;28.50;54.60;;;;;;10397282;28;20076;-35
2022/08/17 17:24:36;;;;;;;7.63;5.33;;;28.50;55.10;;;;;;10398309;28;20057;-36
2022/08/17 17:29:49;;;;;;;11.25;6.13;;;28.50;55.40;;;;;;10402229;28;20504;-36
2022/08/17 17:35:01;;;;;;;9.18;6.28;;;28.30;59.40;;;;;;10395572;28;20049;-41
2022/08/17 17:40:08;;;;;;;9.98;6.15;;;28.30;58.50;;;;;;10384827;28;20049;-40
2022/08/17 17:45:16;;;;;;;9.85;5.95;;;28.50;58.10;;;;;;10396742;28;20088;-40
2022/08/17 17:50:27;;;;;;;12.23;6.28;;;28.60;58.30;;;;;;10400431;28;20092;-36
2022/08/17 17:55:46;;;;;;;10.10;6.53;;;28.80;57.90;;;;;;10400796;28;20545;-35
2022/08/17 18:00:57;;;;;;;7.28;5.35;;;28.90;56.80;;;;;;10394462;28;20077;-34
2022/08/17 18:06:19;;;;;;;7.57;5.97;;;29.10;56.00;;;;;;10396696;28;20070;-36
2022/08/17 18:11:41;;;;;;;10.48;6.78;;;28.90;59.70;;;;;;10399727;28;20127;-35
2022/08/17 18:16:46;;;;;;;7.32;5.50;;;29.30;56.40;;;;;;10383303;28;20129;-35
2022/08/17 18:21:54;;;;;;;5.88;4.82;;;29.30;56.10;;;;;;10390748;28;20469;-34
2022/08/17 18:26:58;;;;;;;8.40;4.88;;;29.30;55.70;;;;;;10396444;28;20056;-35
2022/08/17 18:32:31;;;;;;;5.22;4.22;;;29.30;55.50;;;;;;10396841;28;20045;-34
2022/08/17 18:37:43;;;;;;;5.88;4.10;;;29.20;56.10;;;;;;10368564;28;20081;-35
2022/08/17 18:42:55;;;;;;;6.00;3.80;;;29.00;56.20;;;;;;10390532;28;20056;-34
2022/08/17 18:47:57;;;;;;;4.80;4.00;;;28.60;56.50;;;;;;10397500;28;20137;-33
2022/08/17 18:53:19;;;;;;;5.53;3.67;;;28.70;56.70;;;;;;10396223;28;20049;-35
2022/08/17 18:58:25;;;;;;;5.88;3.92;;;28.60;56.90;;;;;;10383077;28;20121;-35
2022/08/17 19:03:28;;;;;;;4.13;3.13;;;28.60;57.00;;;;;;10397350;28;20049;-35
2022/08/17 19:08:35;;;;;;;5.18;3.05;;;28.50;56.90;;;;;;10393905;28;20842;-35
2022/08/17 19:13:40;;;;;;;3.95;2.78;;;28.50;56.70;;;;;;10408566;28;20073;-35
2022/08/17 19:18:48;;;;;;;3.85;3.28;;;28.40;56.60;;;;;;10405381;28;20047;-35
2022/08/17 19:23:58;;;;;;;3.70;2.78;;;28.40;56.80;;;;;;10406032;28;20379;-33
2022/08/17 19:29:06;;;;;;;4.37;3.13;;;28.40;56.80;;;;;;10394643;28;20132;-34
2022/08/17 19:34:09;;;;;;;3.67;2.85;;;28.30;56.90;;;;;;10398145;28;20135;-35
2022/08/17 19:39:21;;;;;;;5.65;2.72;;;28.40;57.00;;;;;;10405616;28;20060;-34
2022/08/17 19:44:45;;;;;;;5.50;2.75;;;28.30;56.90;;;;;;10395628;28;20108;-35
2022/08/17 19:49:58;;;;;;;4.47;2.70;;;28.30;57.00;;;;;;10396204;28;20139;-34
2022/08/17 19:55:08;;;;;;;5.53;2.45;;;28.30;57.00;;;;;;10394504;28;20140;-33
2022/08/17 20:00:14;;;;;;;3.92;2.08;;;28.20;57.30;;;;;;10406300;28;20084;-45
2022/08/17 20:05:21;;;;;;;12.60;3.15;;;28.20;57.00;;;;;;10402549;28;20045;-36
2022/08/17 20:10:34;;;;;;;3.63;1.85;;;28.20;57.00;;;;;;10398830;28;20120;-36
2022/08/17 20:15:40;;;;;;;4.25;2.13;;;28.30;57.10;;;;;;10398768;28;20511;-36
2022/08/17 20:20:48;;;;;;;5.05;2.30;;;28.20;57.10;;;;;;10401994;28;20107;-35
2022/08/17 20:25:58;;;;;;;2.97;2.28;;;28.20;57.00;;;;;;10400678;28;20816;-35
2022/08/17 20:31:03;;;;;;;4.00;2.20;;;28.20;57.10;;;;;;10393979;28;20140;-33
2022/08/17 20:36:17;;;;;;;4.57;2.25;;;28.10;56.90;;;;;;10392532;28;20057;-35
2022/08/17 20:41:22;;;;;;;6.10;2.05;;;28.10;57.10;;;;;;10403273;28;20045;-36
2022/08/17 20:46:47;;;;;;;3.72;2.10;;;28.10;57.00;;;;;;10404270;28;20068;-34
2022/08/17 20:51:59;;;;;;;2.30;2.10;;;28.10;56.90;;;;;;10397604;28;20038;-35
2022/08/17 20:57:02;;;;;;;3.00;1.92;;;28.10;56.70;;;;;;10403457;28;20056;-36
2022/08/17 21:02:10;;;;;;;2.28;1.77;;;28.10;56.60;;;;;;10407041;28;20132;-35
2022/08/17 21:07:30;;;;;;;2.30;1.80;;;28.10;56.60;;;;;;10392241;28;20382;-34
2022/08/17 21:12:43;;;;;;;2.88;2.15;;;28.00;56.60;;;;;;10404298;28;20046;-34
2022/08/17 21:17:50;;;;;;;3.08;1.67;;;28.00;56.60;;;;;;10398263;28;20060;-34
2022/08/17 21:23:04;;;;;;;2.28;1.77;;;28.00;56.60;;;;;;10400233;28;20574;-34
2022/08/17 21:28:17;;;;;;;2.53;2.00;;;28.00;56.60;;;;;;10394123;28;20053;-34
2022/08/17 21:33:30;;;;;;;2.83;2.00;;;27.90;56.50;;;;;;10405651;28;20049;-34
2022/08/17 21:38:35;;;;;;;2.70;2.00;;;28.00;56.60;;;;;;10402059;28;20506;-33
2022/08/17 21:43:49;;;;;;;4.70;2.00;;;27.90;56.50;;;;;;10396518;28;20057;-33
2022/08/17 21:48:54;;;;;;;2.10;1.75;;;27.90;56.50;;;;;;10394720;28;20053;-33
2022/08/17 21:53:59;;;;;;;4.78;2.20;;;27.90;56.50;;;;;;10410378;28;20073;-34
2022/08/17 21:59:07;;;;;;;3.53;2.00;;;27.90;56.50;;;;;;10415062;28;20084;-35
2022/08/17 22:04:20;;;;;;;3.90;1.70;;;27.90;56.50;;;;;;10408973;28;20042;-34
2022/08/17 22:09:25;;;;;;;3.65;2.40;;;27.90;56.50;;;;;;10394208;28;20111;-35
2022/08/17 22:14:32;;;;;;;2.70;2.00;;;27.80;56.40;;;;;;10409811;28;20056;-33
2022/08/17 22:19:35;;;;;;;3.33;1.70;;;27.80;56.50;;;;;;10408144;28;20057;-34
2022/08/17 22:24:37;;;;;;;3.75;2.03;;;27.80;56.60;;;;;;10402447;28;20534;-34
2022/08/17 22:29:59;;;;;;;2.88;2.22;;;27.80;56.50;;;;;;10405504;28;20136;-35
2022/08/17 22:35:33;;;;;;;2.67;2.20;;;27.80;56.50;;;;;;10398565;28;20081;-34
2022/08/17 22:40:35;;;;;;;2.70;2.13;;;27.70;56.40;;;;;;10351706;28;20057;-34
2022/08/17 22:45:44;;;;;;;3.10;2.15;;;27.70;56.40;;;;;;10411720;28;20080;-34
2022/08/17 22:50:46;;;;;;;3.10;2.28;;;27.70;56.50;;;;;;10413154;28;20111;-34
2022/08/17 23:01:28;;;;;;;2.22;1.90;;;27.70;56.40;;;;;;10412567;28;20044;-34
2022/08/17 23:06:32;;;;;;;2.80;2.00;;;27.70;56.40;;;;;;10409892;28;20112;-47
2022/08/17 23:11:38;;;;;;;2.35;2.13;;;27.70;56.50;;;;;;10404200;28;20535;-34
2022/08/17 23:16:42;;;;;;;4.80;2.10;;;27.70;56.50;;;;;;10417568;28;20053;-34
2022/08/17 23:21:45;;;;;;;4.28;2.10;;;27.60;56.50;;;;;;10397053;28;20041;-34
2022/08/17 23:26:47;;;;;;;3.28;2.20;;;27.60;56.70;;;;;;10409062;28;20559;-33
2022/08/17 23:31:51;;;;;;;2.95;2.25;;;27.60;56.70;;;;;;10396331;28;20085;-33
2022/08/17 23:36:53;;;;;;;3.60;2.00;;;27.60;56.70;;;;;;10418650;28;20073;-34
2022/08/17 23:41:56;;;;;;;4.25;2.30;;;27.60;56.80;;;;;;10408984;28;20084;-33
2022/08/17 23:47:02;;;;;;;2.75;1.95;;;27.60;56.90;;;;;;10402923;28;20069;-34
2022/08/17 23:52:06;;;;;;;2.08;1.88;;;27.60;56.90;;;;;;10393921;28;20041;-33
2022/08/17 23:57:10;;;;;;;2.15;1.75;;;27.60;57.10;;;;;;10390294;28;20088;-34
